createdAt,value
2023-04-29T00:00:18.907Z,16.60
2023-04-29T00:02:47.098Z,16.60
2023-04-29T00:05:15.300Z,16.60
2023-04-29T00:07:44.165Z,16.60
2023-04-29T00:10:14.757Z,16.60
2023-04-29T00:12:44.137Z,16.60
2023-04-29T00:15:12.490Z,16.60
2023-04-29T00:17:40.697Z,16.60
2023-04-29T00:20:10.450Z,16.60
2023-04-29T00:22:41.500Z,16.60
2023-04-29T00:25:11.056Z,16.60
2023-04-29T00:27:39.460Z,16.60
2023-04-29T00:30:10.435Z,16.60
2023-04-29T00:32:38.479Z,16.60
2023-04-29T00:35:07.320Z,16.60
2023-04-29T00:37:35.807Z,16.60
2023-04-29T00:40:04.392Z,16.60
2023-04-29T00:42:33.265Z,16.60
2023-04-29T00:45:01.285Z,16.60
2023-04-29T00:47:30.732Z,16.60
2023-04-29T00:49:58.778Z,16.60
2023-04-29T00:52:27.424Z,16.50
2023-04-29T00:54:55.468Z,16.60
2023-04-29T00:57:23.506Z,16.60
2023-04-29T00:59:51.667Z,16.60
2023-04-29T01:02:19.937Z,16.60
2023-04-29T01:04:49.424Z,16.60
2023-04-29T01:07:18.733Z,16.60
2023-04-29T01:09:55.570Z,16.60
2023-04-29T01:12:29.100Z,16.60
2023-04-29T01:15:04.061Z,16.60
2023-04-29T01:17:32.980Z,16.60
2023-04-29T01:20:02.436Z,16.60
2023-04-29T01:22:30.427Z,16.50
2023-04-29T01:24:59.984Z,16.60
2023-04-29T01:27:31.023Z,16.50
2023-04-29T01:30:02.384Z,16.50
2023-04-29T01:32:38.851Z,16.50
2023-04-29T01:35:11.750Z,16.50
2023-04-29T01:37:43.150Z,16.50
2023-04-29T01:40:13.904Z,16.50
2023-04-29T01:42:46.065Z,16.60
2023-04-29T01:45:17.926Z,16.50
2023-04-29T01:47:46.402Z,16.50
2023-04-29T01:50:14.532Z,16.50
2023-04-29T01:52:42.796Z,16.50
2023-04-29T01:55:12.494Z,16.50
2023-04-29T01:57:40.554Z,16.50
2023-04-29T02:00:11.708Z,16.50
2023-04-29T02:02:39.901Z,16.50
2023-04-29T02:05:09.834Z,16.50
2023-04-29T02:07:37.872Z,16.50
2023-04-29T02:10:06.796Z,16.50
2023-04-29T02:12:36.673Z,16.50
2023-04-29T02:15:05.149Z,16.50
2023-04-29T02:17:34.630Z,16.50
2023-04-29T02:20:02.723Z,16.50
2023-04-29T02:22:30.709Z,16.50
2023-04-29T02:24:58.729Z,16.50
2023-04-29T02:27:27.274Z,16.50
2023-04-29T02:29:56.672Z,16.50
2023-04-29T02:32:24.807Z,16.50
2023-04-29T02:34:53.099Z,16.50
2023-04-29T02:37:21.257Z,16.50
2023-04-29T02:39:49.357Z,16.50
2023-04-29T02:42:17.377Z,16.50
2023-04-29T02:44:45.446Z,16.50
2023-04-29T02:47:15.284Z,16.50
2023-04-29T02:49:43.301Z,16.50
2023-04-29T02:52:11.305Z,16.50
2023-04-29T02:54:39.344Z,16.50
2023-04-29T02:57:08.028Z,16.50
2023-04-29T02:59:36.168Z,16.40
2023-04-29T03:02:04.312Z,16.50
2023-04-29T03:04:33.899Z,16.40
2023-04-29T03:07:02.018Z,16.40
2023-04-29T03:09:30.821Z,16.50
2023-04-29T03:11:58.975Z,16.50
2023-04-29T03:14:27.073Z,16.50
2023-04-29T03:16:56.436Z,16.50
2023-04-29T03:19:24.514Z,16.40
2023-04-29T03:21:54.162Z,16.40
2023-04-29T03:24:22.662Z,16.40
2023-04-29T03:26:50.716Z,16.50
2023-04-29T03:29:18.769Z,16.40
2023-04-29T03:31:47.109Z,16.40
2023-04-29T03:34:15.378Z,16.40
2023-04-29T03:36:43.396Z,16.40
2023-04-29T03:39:12.991Z,16.50
2023-04-29T03:41:41.078Z,16.40
2023-04-29T03:44:09.236Z,16.40
2023-04-29T03:46:37.332Z,16.50
2023-04-29T03:49:05.497Z,16.40
2023-04-29T03:51:33.519Z,16.40
2023-04-29T03:54:01.838Z,16.40
2023-04-29T03:56:31.335Z,16.40
2023-04-29T03:58:59.375Z,16.40
2023-04-29T04:01:27.429Z,16.40
2023-04-29T04:03:55.700Z,16.40
2023-04-29T04:06:23.813Z,16.40
2023-04-29T04:08:51.861Z,16.30
2023-04-29T04:11:19.930Z,16.40
2023-04-29T04:13:49.866Z,16.30
2023-04-29T04:16:17.967Z,16.40
2023-04-29T04:18:46.038Z,16.40
2023-04-29T04:21:14.117Z,16.40
2023-04-29T04:23:42.140Z,16.40
2023-04-29T04:26:10.183Z,16.40
2023-04-29T04:28:38.213Z,16.30
2023-04-29T04:31:08.093Z,16.30
2023-04-29T04:33:36.363Z,16.40
2023-04-29T04:36:04.490Z,16.40
2023-04-29T04:38:33.181Z,16.30
2023-04-29T04:41:01.322Z,16.30
2023-04-29T04:43:29.305Z,16.40
2023-04-29T04:45:57.526Z,16.40
2023-04-29T04:48:27.136Z,16.40
2023-04-29T04:50:55.168Z,16.30
2023-04-29T04:53:23.839Z,16.40
2023-04-29T04:55:51.903Z,16.40
2023-04-29T04:58:19.930Z,16.40
2023-04-29T05:00:48.333Z,16.30
2023-04-29T05:03:17.075Z,16.30
2023-04-29T05:05:46.544Z,16.30
2023-04-29T05:08:14.568Z,16.30
2023-04-29T05:10:44.490Z,16.30
2023-04-29T05:13:12.663Z,16.30
2023-04-29T05:15:40.716Z,16.30
2023-04-29T05:18:08.792Z,16.30
2023-04-29T05:20:37.181Z,16.30
2023-04-29T05:23:06.600Z,16.30
2023-04-29T05:25:34.620Z,16.30
2023-04-29T05:28:03.524Z,16.30
2023-04-29T05:30:31.553Z,16.30
2023-04-29T05:32:59.784Z,16.30
2023-04-29T05:35:27.909Z,16.30
2023-04-29T05:37:55.919Z,16.30
2023-04-29T05:40:25.294Z,16.30
2023-04-29T05:42:53.303Z,16.30
2023-04-29T05:45:21.340Z,16.30
2023-04-29T05:47:49.415Z,16.30
2023-04-29T05:50:17.908Z,16.30
2023-04-29T05:52:45.952Z,16.40
2023-04-29T05:55:14.013Z,16.30
2023-04-29T05:57:43.630Z,16.30
2023-04-29T06:00:12.630Z,16.30
2023-04-29T06:02:54.814Z,16.30
2023-04-29T06:05:23.481Z,16.30
2023-04-29T06:07:52.009Z,16.30
2023-04-29T06:10:20.189Z,16.30
2023-04-29T06:12:51.590Z,16.30
2023-04-29T06:15:19.664Z,16.30
2023-04-29T06:17:48.756Z,16.30
2023-04-29T06:20:18.232Z,16.30
2023-04-29T06:22:46.510Z,16.30
2023-04-29T06:25:15.072Z,16.30
2023-04-29T06:27:43.053Z,16.30
2023-04-29T06:30:13.285Z,16.30
2023-04-29T06:32:41.337Z,16.30
2023-04-29T06:35:10.092Z,16.40
2023-04-29T06:37:38.338Z,16.40
2023-04-29T06:40:07.808Z,16.30
2023-04-29T06:42:36.801Z,16.30
2023-04-29T06:45:05.366Z,16.30
2023-04-29T06:47:34.834Z,16.30
2023-04-29T06:50:03.170Z,16.30
2023-04-29T06:52:31.432Z,16.40
2023-04-29T06:54:59.518Z,16.40
2023-04-29T06:57:27.531Z,16.40
2023-04-29T06:59:55.565Z,16.30
2023-04-29T07:02:23.675Z,16.40
2023-04-29T07:04:53.220Z,16.40
2023-04-29T07:07:21.409Z,16.40
2023-04-29T07:09:52.149Z,16.40
2023-04-29T07:12:20.444Z,16.40
2023-04-29T07:14:48.504Z,16.40
2023-04-29T07:17:16.652Z,16.40
2023-04-29T07:19:44.751Z,16.40
2023-04-29T07:22:19.858Z,16.40
2023-04-29T07:24:47.880Z,16.40
2023-04-29T07:27:16.375Z,16.40
2023-04-29T07:29:44.421Z,16.40
2023-04-29T07:32:12.792Z,16.40
2023-04-29T07:34:40.865Z,16.40
2023-04-29T07:37:09.851Z,16.30
2023-04-29T07:39:39.294Z,16.30
2023-04-29T07:42:07.353Z,16.40
2023-04-29T07:44:36.343Z,16.40
2023-04-29T07:47:04.380Z,16.40
2023-04-29T07:49:32.526Z,16.40
2023-04-29T07:52:00.570Z,16.40
2023-04-29T07:54:28.587Z,16.40
2023-04-29T07:56:59.009Z,16.40
2023-04-29T07:59:27.011Z,16.40
2023-04-29T08:01:55.707Z,16.40
2023-04-29T08:04:23.993Z,16.50
2023-04-29T08:06:52.209Z,16.40
2023-04-29T08:09:20.535Z,16.40
2023-04-29T08:11:48.601Z,16.40
2023-04-29T08:14:18.010Z,16.40
2023-04-29T08:16:46.522Z,16.40
2023-04-29T08:19:14.544Z,16.40
2023-04-29T08:21:42.734Z,16.50
2023-04-29T08:24:10.879Z,16.50
2023-04-29T08:26:40.753Z,16.50
2023-04-29T08:29:08.904Z,16.50
2023-04-29T08:31:38.465Z,16.50
2023-04-29T08:34:06.712Z,16.60
2023-04-29T08:36:35.045Z,16.60
2023-04-29T08:39:03.130Z,16.60
2023-04-29T08:41:32.887Z,16.60
2023-04-29T08:44:01.156Z,16.60
2023-04-29T08:46:29.493Z,16.60
2023-04-29T08:48:58.920Z,16.70
2023-04-29T08:51:26.953Z,16.70
2023-04-29T08:53:55.258Z,16.70
2023-04-29T08:56:23.291Z,16.70
2023-04-29T08:58:54.426Z,16.80
2023-04-29T09:01:26.230Z,16.80
2023-04-29T09:03:57.915Z,16.80
2023-04-29T09:06:28.951Z,16.80
2023-04-29T09:08:59.826Z,16.80
2023-04-29T09:11:28.870Z,16.90
2023-04-29T09:14:00.270Z,16.90
2023-04-29T09:16:28.523Z,16.90
2023-04-29T09:18:56.977Z,16.90
2023-04-29T09:21:27.391Z,16.90
2023-04-29T09:23:56.126Z,16.90
2023-04-29T09:26:24.261Z,16.90
2023-04-29T09:29:07.408Z,17.00
2023-04-29T09:31:35.496Z,17.00
2023-04-29T09:34:03.597Z,17.00
2023-04-29T09:36:40.892Z,17.00
2023-04-29T09:39:11.876Z,17.00
2023-04-29T09:41:41.398Z,17.00
2023-04-29T09:44:10.107Z,17.00
2023-04-29T09:46:38.725Z,17.00
2023-04-29T09:49:23.987Z,17.00
2023-04-29T09:51:57.133Z,17.00
2023-04-29T09:54:28.792Z,17.00
2023-04-29T09:56:57.470Z,17.00
2023-04-29T09:59:25.704Z,17.00
2023-04-29T10:01:55.135Z,17.00
2023-04-29T10:04:24.232Z,17.00
2023-04-29T10:06:53.032Z,17.00
2023-04-29T10:09:23.196Z,17.10
2023-04-29T10:11:53.034Z,17.10
2023-04-29T10:14:22.056Z,17.10
2023-04-29T10:16:51.111Z,17.10
2023-04-29T10:19:27.658Z,17.10
2023-04-29T10:21:56.264Z,17.10
2023-04-29T10:24:25.733Z,17.10
2023-04-29T10:26:54.042Z,17.10
2023-04-29T10:29:22.102Z,17.10
2023-04-29T10:31:50.781Z,17.20
2023-04-29T10:34:19.035Z,17.20
2023-04-29T10:36:48.050Z,17.20
2023-04-29T10:39:21.940Z,17.10
2023-04-29T10:41:51.360Z,17.20
2023-04-29T10:44:19.756Z,17.20
2023-04-29T10:46:48.101Z,17.20
2023-04-29T10:49:16.164Z,17.20
2023-04-29T10:51:46.936Z,17.20
2023-04-29T10:54:15.668Z,17.20
2023-04-29T10:56:44.753Z,17.20
2023-04-29T10:59:15.076Z,17.20
2023-04-29T11:01:53.287Z,17.20
2023-04-29T11:04:21.741Z,17.20
2023-04-29T11:06:53.096Z,17.20
2023-04-29T11:09:22.349Z,17.20
2023-04-29T11:12:04.181Z,17.20
2023-04-29T11:14:37.892Z,17.20
2023-04-29T11:17:06.739Z,17.20
2023-04-29T11:19:35.120Z,17.20
2023-04-29T11:22:26.872Z,17.20
2023-04-29T11:24:56.689Z,17.20
2023-04-29T11:27:26.534Z,17.20
2023-04-29T11:29:58.708Z,17.20
2023-04-29T11:32:27.502Z,17.20
2023-04-29T11:34:56.253Z,17.20
2023-04-29T11:37:25.764Z,17.20
2023-04-29T11:40:00.165Z,17.20
2023-04-29T11:42:28.505Z,17.20
2023-04-29T11:44:59.524Z,17.20
2023-04-29T11:47:29.144Z,17.20
2023-04-29T11:50:03.909Z,17.10
2023-04-29T11:52:31.975Z,17.20
2023-04-29T11:55:00.298Z,17.10
2023-04-29T11:57:28.498Z,17.10
2023-04-29T11:59:58.507Z,17.10
2023-04-29T12:02:30.821Z,17.10
2023-04-29T12:05:01.335Z,17.10
2023-04-29T12:07:31.382Z,17.10
2023-04-29T12:10:00.430Z,17.10
2023-04-29T12:12:29.282Z,17.10
2023-04-29T12:14:58.804Z,17.10
2023-04-29T12:17:26.934Z,17.10
2023-04-29T12:19:54.948Z,17.10
2023-04-29T12:22:22.966Z,17.10
2023-04-29T12:24:54.534Z,17.10
2023-04-29T12:27:22.819Z,17.10
2023-04-29T12:29:52.949Z,17.10
2023-04-29T12:32:25.232Z,17.10
2023-04-29T12:34:53.749Z,17.10
2023-04-29T12:37:22.874Z,17.10
2023-04-29T12:39:51.101Z,17.10
2023-04-29T12:42:19.247Z,17.10
2023-04-29T12:44:48.229Z,17.10
2023-04-29T12:47:16.519Z,17.10
2023-04-29T12:49:46.470Z,17.10
2023-04-29T12:52:14.518Z,17.10
2023-04-29T12:54:50.751Z,17.10
2023-04-29T12:57:18.903Z,17.10
2023-04-29T12:59:47.103Z,17.10
2023-04-29T13:02:15.306Z,17.10
2023-04-29T13:04:45.297Z,17.10
2023-04-29T13:07:13.539Z,17.00
2023-04-29T13:09:41.907Z,17.10
2023-04-29T13:12:09.969Z,17.10
2023-04-29T13:14:38.033Z,17.00
2023-04-29T13:17:06.420Z,17.00
2023-04-29T13:19:48.066Z,17.00
2023-04-29T13:22:19.596Z,17.00
2023-04-29T13:24:47.770Z,17.10
2023-04-29T13:27:15.822Z,17.00
2023-04-29T13:29:43.945Z,17.00
2023-04-29T13:32:12.571Z,17.10
2023-04-29T13:34:43.280Z,17.00
2023-04-29T13:37:11.792Z,17.00
2023-04-29T13:39:45.579Z,17.00
2023-04-29T13:42:15.832Z,17.00
2023-04-29T13:44:52.586Z,17.00
2023-04-29T13:47:26.248Z,17.10
2023-04-29T13:50:25.608Z,17.00
2023-04-29T13:56:01.661Z,17.10
2023-04-29T14:03:07.074Z,17.00
2023-04-29T14:05:35.402Z,17.00
2023-04-29T14:08:03.836Z,17.00
2023-04-29T14:10:33.284Z,17.00
2023-04-29T14:13:01.527Z,17.00
2023-04-29T14:15:29.550Z,17.00
2023-04-29T14:17:57.620Z,17.00
2023-04-29T14:20:25.689Z,17.00
2023-04-29T14:22:54.329Z,17.00
2023-04-29T14:25:22.434Z,17.00
2023-04-29T14:27:51.914Z,17.00
2023-04-29T14:30:20.039Z,17.00
2023-04-29T14:32:48.161Z,17.00
2023-04-29T14:35:16.308Z,17.00
2023-04-29T14:37:44.385Z,17.00
2023-04-29T14:40:12.809Z,17.00
2023-04-29T14:42:40.824Z,17.00
2023-04-29T14:45:11.465Z,17.00
2023-04-29T14:47:39.573Z,17.00
2023-04-29T14:50:09.840Z,17.00
2023-04-29T14:52:37.872Z,17.00
2023-04-29T14:55:06.331Z,16.90
2023-04-29T14:57:34.641Z,16.90
2023-04-29T15:00:02.806Z,16.90
2023-04-29T15:02:32.275Z,16.90
2023-04-29T15:05:00.344Z,16.90
2023-04-29T15:07:31.588Z,16.90
2023-04-29T15:09:59.857Z,16.90
2023-04-29T15:12:27.884Z,16.90
2023-04-29T15:14:56.353Z,16.90
2023-04-29T15:17:24.564Z,16.90
2023-04-29T15:19:54.216Z,16.90
2023-04-29T15:22:22.390Z,16.90
2023-04-29T15:24:52.203Z,16.90
2023-04-29T15:27:21.483Z,17.00
2023-04-29T15:29:49.613Z,16.90
2023-04-29T15:32:17.789Z,16.90
2023-04-29T15:34:45.946Z,16.90
2023-04-29T15:37:15.503Z,16.90
2023-04-29T15:39:43.585Z,16.90
2023-04-29T15:42:11.643Z,16.90
2023-04-29T15:44:39.714Z,16.90
2023-04-29T15:47:07.774Z,16.80
2023-04-29T15:49:39.348Z,16.90
2023-04-29T15:52:07.396Z,16.90
2023-04-29T15:54:36.819Z,16.90
2023-04-29T15:57:05.044Z,16.90
2023-04-29T15:59:33.733Z,16.90
2023-04-29T16:02:03.213Z,16.90
2023-04-29T16:04:32.123Z,16.90
2023-04-29T16:07:01.577Z,16.90
2023-04-29T16:09:29.899Z,16.90
2023-04-29T16:11:59.522Z,16.80
2023-04-29T16:14:27.638Z,16.90
2023-04-29T16:16:56.008Z,16.90
2023-04-29T16:19:24.140Z,16.80
2023-04-29T16:21:52.595Z,16.80
2023-04-29T16:24:21.009Z,16.80
2023-04-29T16:26:49.416Z,16.80
2023-04-29T16:29:18.978Z,16.90
2023-04-29T16:31:47.166Z,16.80
2023-04-29T16:34:15.493Z,16.80
2023-04-29T16:36:43.564Z,16.80
2023-04-29T16:39:11.687Z,16.80
2023-04-29T16:41:39.842Z,16.80
2023-04-29T16:44:07.956Z,16.80
2023-04-29T16:46:37.493Z,16.80
2023-04-29T16:49:05.897Z,16.80
2023-04-29T16:51:34.565Z,16.80
2023-04-29T16:54:02.858Z,16.80
2023-04-29T16:56:36.817Z,16.80
2023-04-29T16:59:05.859Z,16.80
2023-04-29T17:01:34.040Z,16.80
2023-04-29T17:04:04.110Z,16.80
2023-04-29T17:06:32.390Z,16.80
2023-04-29T17:09:00.662Z,16.80
2023-04-29T17:11:28.733Z,16.80
2023-04-29T17:13:56.837Z,16.70
2023-04-29T17:16:26.492Z,16.70
2023-04-29T17:18:55.706Z,16.70
2023-04-29T17:21:26.144Z,16.70
2023-04-29T17:23:54.281Z,16.70
2023-04-29T17:26:22.839Z,16.70
2023-04-29T17:28:50.996Z,16.70
2023-04-29T17:31:20.872Z,16.70
2023-04-29T17:33:55.175Z,16.70
2023-04-29T17:36:23.387Z,16.70
2023-04-29T17:38:52.817Z,16.70
2023-04-29T17:41:20.908Z,16.70
2023-04-29T17:43:49.017Z,16.70
2023-04-29T17:46:17.280Z,16.70
2023-04-29T17:48:47.256Z,16.70
2023-04-29T17:51:15.501Z,16.70
2023-04-29T17:53:43.719Z,16.60
2023-04-29T17:56:13.213Z,16.60
2023-04-29T17:58:41.364Z,16.60
2023-04-29T18:01:09.530Z,16.60
2023-04-29T18:03:37.712Z,16.60
2023-04-29T18:06:10.423Z,16.60
2023-04-29T18:08:42.016Z,16.60
2023-04-29T18:11:13.253Z,16.60
2023-04-29T18:13:43.011Z,16.60
2023-04-29T18:16:11.159Z,16.60
2023-04-29T18:18:39.310Z,16.60
2023-04-29T18:21:07.367Z,16.60
2023-04-29T18:23:35.802Z,16.60
2023-04-29T18:26:04.332Z,16.60
2023-04-29T18:28:34.108Z,16.60
2023-04-29T18:31:06.794Z,16.60
2023-04-29T18:33:36.946Z,16.60
2023-04-29T18:36:05.392Z,16.60
2023-04-29T18:38:33.737Z,16.60
2023-04-29T18:41:01.931Z,16.60
2023-04-29T18:43:30.016Z,16.60
2023-04-29T18:45:58.251Z,16.60
2023-04-29T18:48:28.793Z,16.60
2023-04-29T18:50:59.172Z,16.60
2023-04-29T18:53:27.464Z,16.60
2023-04-29T18:55:55.572Z,16.60
2023-04-29T18:58:26.034Z,16.50
2023-04-29T19:00:54.190Z,16.60
2023-04-29T19:03:22.879Z,16.60
2023-04-29T19:05:52.481Z,16.60
2023-04-29T19:08:20.623Z,16.60
2023-04-29T19:10:48.798Z,16.60
2023-04-29T19:13:17.369Z,16.60
2023-04-29T19:15:45.866Z,16.60
2023-04-29T19:18:14.048Z,16.50
2023-04-29T19:20:42.718Z,16.50
2023-04-29T19:23:12.186Z,16.60
2023-04-29T19:25:40.356Z,16.60
2023-04-29T19:28:08.474Z,16.60
2023-04-29T19:30:36.640Z,16.60
2023-04-29T19:33:04.959Z,16.60
2023-04-29T19:35:33.124Z,16.60
2023-04-29T19:38:01.346Z,16.50
2023-04-29T19:40:30.812Z,16.50
2023-04-29T19:42:58.888Z,16.60
2023-04-29T19:45:27.366Z,16.60
2023-04-29T19:47:55.841Z,16.60
2023-04-29T19:50:24.095Z,16.60
2023-04-29T19:52:52.201Z,16.60
2023-04-29T19:55:20.469Z,16.50
2023-04-29T19:57:51.289Z,16.50
2023-04-29T20:00:19.556Z,16.50
2023-04-29T20:02:50.780Z,16.50
2023-04-29T20:05:19.769Z,16.50
2023-04-29T20:07:47.839Z,16.50
2023-04-29T20:10:15.918Z,16.40
2023-04-29T20:12:43.995Z,16.50
2023-04-29T20:15:13.560Z,16.50
2023-04-29T20:17:41.720Z,16.50
2023-04-29T20:20:10.814Z,16.50
2023-04-29T20:22:39.066Z,16.50
2023-04-29T20:25:07.943Z,16.50
2023-04-29T20:27:36.304Z,16.50
2023-04-29T20:30:05.406Z,16.50
2023-04-29T20:32:35.168Z,16.50
2023-04-29T20:35:03.276Z,16.50
2023-04-29T20:37:31.879Z,16.50
2023-04-29T20:39:59.999Z,16.50
2023-04-29T20:42:28.498Z,16.50
2023-04-29T20:44:56.703Z,16.50
2023-04-29T20:47:24.764Z,16.50
2023-04-29T20:49:54.283Z,16.50
2023-04-29T20:52:22.514Z,16.50
2023-04-29T20:54:51.881Z,16.50
2023-04-29T20:57:20.173Z,16.50
2023-04-29T20:59:48.234Z,16.50
2023-04-29T21:02:16.281Z,16.50
2023-04-29T21:04:44.392Z,16.50
2023-04-29T21:07:13.821Z,16.50
2023-04-29T21:09:41.877Z,16.50
2023-04-29T21:12:09.908Z,16.50
2023-04-29T21:14:39.403Z,16.50
2023-04-29T21:17:08.348Z,16.50
2023-04-29T21:19:36.761Z,16.40
2023-04-29T21:22:05.913Z,16.40
2023-04-29T21:24:35.496Z,16.40
2023-04-29T21:27:03.787Z,16.50
2023-04-29T21:29:32.337Z,16.40
2023-04-29T21:32:00.402Z,16.50
2023-04-29T21:34:28.433Z,16.40
2023-04-29T21:36:56.814Z,16.50
2023-04-29T21:39:24.893Z,16.50
2023-04-29T21:41:55.002Z,16.40
2023-04-29T21:44:23.018Z,16.40
2023-04-29T21:46:51.175Z,16.40
2023-04-29T21:49:19.257Z,16.40
2023-04-29T21:51:47.324Z,16.40
2023-04-29T21:54:15.387Z,16.40
2023-04-29T21:56:43.424Z,16.40
2023-04-29T21:59:12.865Z,16.40
2023-04-29T22:01:48.548Z,16.40
2023-04-29T22:04:17.137Z,16.40
2023-04-29T22:06:45.198Z,16.40
2023-04-29T22:09:13.371Z,16.40
2023-04-29T22:11:41.427Z,16.40
2023-04-29T22:14:09.455Z,16.40
2023-04-29T22:16:38.933Z,16.40
2023-04-29T22:19:07.225Z,16.40
2023-04-29T22:21:35.422Z,16.40
2023-04-29T22:24:03.438Z,16.40
2023-04-29T22:26:31.764Z,16.40
2023-04-29T22:29:00.145Z,16.40
2023-04-29T22:31:28.357Z,16.40
2023-04-29T22:33:57.832Z,16.40
2023-04-29T22:36:25.973Z,16.40
2023-04-29T22:38:54.083Z,16.40
2023-04-29T22:41:22.069Z,16.40
2023-04-29T22:43:50.882Z,16.40
2023-04-29T22:46:18.952Z,16.40
2023-04-29T22:48:47.093Z,16.40
2023-04-29T22:51:16.587Z,16.40
2023-04-29T22:53:44.582Z,16.30
2023-04-29T22:56:12.634Z,16.30
2023-04-29T22:58:41.299Z,16.30
2023-04-29T23:01:11.354Z,16.30
2023-04-29T23:03:40.039Z,16.40
2023-04-29T23:06:08.339Z,16.40
2023-04-29T23:08:37.749Z,16.40
2023-04-29T23:11:05.878Z,16.40
2023-04-29T23:13:33.901Z,16.40
2023-04-29T23:16:02.162Z,16.40
2023-04-29T23:18:30.792Z,16.40
2023-04-29T23:20:58.850Z,16.40
2023-04-29T23:23:26.951Z,16.40
2023-04-29T23:25:56.399Z,16.40
2023-04-29T23:28:24.818Z,16.30
2023-04-29T23:30:52.950Z,16.30
2023-04-29T23:33:21.122Z,16.30
2023-04-29T23:35:50.647Z,16.40
2023-04-29T23:38:18.882Z,16.40
2023-04-29T23:40:47.424Z,16.40
2023-04-29T23:43:16.871Z,16.30
2023-04-29T23:45:45.737Z,16.30
2023-04-29T23:48:13.980Z,16.30
2023-04-29T23:50:42.007Z,16.30
2023-04-29T23:53:10.021Z,16.30
2023-04-29T23:55:38.037Z,16.30
2023-04-29T23:58:06.089Z,16.30
